sensor_id;sensor_type;location;lat;lon;timestamp;temperature;humidity
53520;DHT22;39397;53.204;5.778;2023-04-25T00:01:17;8.20;99.90
53520;DHT22;39397;53.204;5.778;2023-04-25T00:03:44;6.70;99.90
53520;DHT22;39397;53.204;5.778;2023-04-25T00:06:11;6.70;99.90
53520;DHT22;39397;53.204;5.778;2023-04-25T00:08:37;6.40;99.90
53520;DHT22;39397;53.204;5.778;2023-04-25T00:11:03;6.60;99.90
53520;DHT22;39397;53.204;5.778;2023-04-25T00:13:29;6.70;99.90
53520;DHT22;39397;53.204;5.778;2023-04-25T00:15:55;6.60;99.90
53520;DHT22;39397;53.204;5.778;2023-04-25T00:18:21;6.60;99.90
53520;DHT22;39397;53.204;5.778;2023-04-25T00:20:48;6.70;99.90
53520;DHT22;39397;53.204;5.778;2023-04-25T00:23:15;6.40;99.90
53520;DHT22;39397;53.204;5.778;2023-04-25T00:25:44;6.60;99.90
53520;DHT22;39397;53.204;5.778;2023-04-25T00:28:11;7.20;99.90
53520;DHT22;39397;53.204;5.778;2023-04-25T00:30:37;7.20;99.90
53520;DHT22;39397;53.204;5.778;2023-04-25T00:33:02;6.60;99.90
53520;DHT22;39397;53.204;5.778;2023-04-25T00:35:28;6.60;99.90
53520;DHT22;39397;53.204;5.778;2023-04-25T00:37:54;8.10;99.90
53520;DHT22;39397;53.204;5.778;2023-04-25T00:40:20;7.30;99.90
53520;DHT22;39397;53.204;5.778;2023-04-25T00:42:46;6.40;99.90
53520;DHT22;39397;53.204;5.778;2023-04-25T00:45:14;6.50;99.90
53520;DHT22;39397;53.204;5.778;2023-04-25T00:47:42;6.40;99.90
53520;DHT22;39397;53.204;5.778;2023-04-25T00:50:09;7.40;99.90
53520;DHT22;39397;53.204;5.778;2023-04-25T00:52:35;6.50;99.90
53520;DHT22;39397;53.204;5.778;2023-04-25T00:55:01;6.60;99.90
53520;DHT22;39397;53.204;5.778;2023-04-25T00:57:27;7.10;99.90
53520;DHT22;39397;53.204;5.778;2023-04-25T00:59:54;6.50;99.90
53520;DHT22;39397;53.204;5.778;2023-04-25T01:02:20;6.30;99.90
53520;DHT22;39397;53.204;5.778;2023-04-25T01:04:48;7.00;99.90
53520;DHT22;39397;53.204;5.778;2023-04-25T01:07:14;6.40;99.90
53520;DHT22;39397;53.204;5.778;2023-04-25T01:09:41;6.50;99.90
53520;DHT22;39397;53.204;5.778;2023-04-25T01:12:07;6.60;99.90
53520;DHT22;39397;53.204;5.778;2023-04-25T01:14:33;6.60;99.90
53520;DHT22;39397;53.204;5.778;2023-04-25T01:16:59;7.30;99.90
53520;DHT22;39397;53.204;5.778;2023-04-25T01:19:24;8.00;99.90
53520;DHT22;39397;53.204;5.778;2023-04-25T01:21:51;6.40;99.90
53520;DHT22;39397;53.204;5.778;2023-04-25T01:24:17;7.30;99.90
53520;DHT22;39397;53.204;5.778;2023-04-25T01:26:43;6.30;99.90
53520;DHT22;39397;53.204;5.778;2023-04-25T01:29:19;6.50;99.90
53520;DHT22;39397;53.204;5.778;2023-04-25T01:31:45;6.20;99.90
53520;DHT22;39397;53.204;5.778;2023-04-25T01:34:13;6.10;99.90
53520;DHT22;39397;53.204;5.778;2023-04-25T01:36:39;6.00;99.90
53520;DHT22;39397;53.204;5.778;2023-04-25T01:39:06;6.40;99.90
53520;DHT22;39397;53.204;5.778;2023-04-25T01:41:32;5.80;99.90
53520;DHT22;39397;53.204;5.778;2023-04-25T01:43:58;6.00;99.90
53520;DHT22;39397;53.204;5.778;2023-04-25T01:46:24;6.10;99.90
53520;DHT22;39397;53.204;5.778;2023-04-25T01:48:49;5.80;99.90
53520;DHT22;39397;53.204;5.778;2023-04-25T01:51:15;6.90;99.90
53520;DHT22;39397;53.204;5.778;2023-04-25T01:53:41;5.90;99.90
53520;DHT22;39397;53.204;5.778;2023-04-25T01:56:07;6.90;99.90
53520;DHT22;39397;53.204;5.778;2023-04-25T01:58:33;6.90;99.90
53520;DHT22;39397;53.204;5.778;2023-04-25T02:00:59;5.90;99.90
53520;DHT22;39397;53.204;5.778;2023-04-25T02:03:25;5.90;99.90
53520;DHT22;39397;53.204;5.778;2023-04-25T02:05:51;6.50;99.90
53520;DHT22;39397;53.204;5.778;2023-04-25T02:08:17;5.90;99.90
53520;DHT22;39397;53.204;5.778;2023-04-25T02:10:43;6.90;99.90
53520;DHT22;39397;53.204;5.778;2023-04-25T02:13:09;5.70;99.90
53520;DHT22;39397;53.204;5.778;2023-04-25T02:15:35;6.90;99.90
53520;DHT22;39397;53.204;5.778;2023-04-25T02:18:01;5.80;99.90
53520;DHT22;39397;53.204;5.778;2023-04-25T02:20:29;6.60;99.90
53520;DHT22;39397;53.204;5.778;2023-04-25T02:22:55;6.20;99.90
53520;DHT22;39397;53.204;5.778;2023-04-25T02:25:21;6.50;99.90
53520;DHT22;39397;53.204;5.778;2023-04-25T02:27:48;5.60;99.90
53520;DHT22;39397;53.204;5.778;2023-04-25T02:30:14;7.70;99.90
53520;DHT22;39397;53.204;5.778;2023-04-25T02:32:40;5.70;99.90
53520;DHT22;39397;53.204;5.778;2023-04-25T02:35:07;5.50;99.90
53520;DHT22;39397;53.204;5.778;2023-04-25T02:37:34;5.60;99.90
53520;DHT22;39397;53.204;5.778;2023-04-25T02:40:00;5.90;99.90
53520;DHT22;39397;53.204;5.778;2023-04-25T02:42:26;6.50;99.90
53520;DHT22;39397;53.204;5.778;2023-04-25T02:44:52;6.40;99.90
53520;DHT22;39397;53.204;5.778;2023-04-25T02:47:18;5.40;99.90
53520;DHT22;39397;53.204;5.778;2023-04-25T02:49:44;5.70;99.90
53520;DHT22;39397;53.204;5.778;2023-04-25T02:52:11;5.80;99.90
53520;DHT22;39397;53.204;5.778;2023-04-25T02:54:37;5.80;99.90
53520;DHT22;39397;53.204;5.778;2023-04-25T02:57:03;5.50;99.90
53520;DHT22;39397;53.204;5.778;2023-04-25T02:59:28;6.30;99.90
53520;DHT22;39397;53.204;5.778;2023-04-25T03:01:54;6.30;99.90
53520;DHT22;39397;53.204;5.778;2023-04-25T03:04:20;6.40;99.90
53520;DHT22;39397;53.204;5.778;2023-04-25T03:06:49;6.10;99.90
53520;DHT22;39397;53.204;5.778;2023-04-25T03:09:28;5.50;99.90
53520;DHT22;39397;53.204;5.778;2023-04-25T03:11:54;6.60;99.90
53520;DHT22;39397;53.204;5.778;2023-04-25T03:14:20;7.40;99.90
53520;DHT22;39397;53.204;5.778;2023-04-25T03:16:45;6.40;99.90
53520;DHT22;39397;53.204;5.778;2023-04-25T03:19:11;7.20;99.90
53520;DHT22;39397;53.204;5.778;2023-04-25T03:21:37;6.20;99.90
53520;DHT22;39397;53.204;5.778;2023-04-25T03:24:04;5.80;99.90
53520;DHT22;39397;53.204;5.778;2023-04-25T03:26:30;5.80;99.90
53520;DHT22;39397;53.204;5.778;2023-04-25T03:28:56;5.80;99.90
53520;DHT22;39397;53.204;5.778;2023-04-25T03:31:22;5.80;99.90
53520;DHT22;39397;53.204;5.778;2023-04-25T03:33:48;6.10;99.90
53520;DHT22;39397;53.204;5.778;2023-04-25T03:36:15;6.70;99.90
53520;DHT22;39397;53.204;5.778;2023-04-25T03:38:41;5.60;99.90
53520;DHT22;39397;53.204;5.778;2023-04-25T03:41:09;5.60;99.90
53520;DHT22;39397;53.204;5.778;2023-04-25T03:43:34;6.00;99.90
53520;DHT22;39397;53.204;5.778;2023-04-25T03:46:00;5.60;99.90
53520;DHT22;39397;53.204;5.778;2023-04-25T03:48:26;5.60;99.90
53520;DHT22;39397;53.204;5.778;2023-04-25T03:50:53;5.60;99.90
53520;DHT22;39397;53.204;5.778;2023-04-25T03:53:18;5.50;99.90
53520;DHT22;39397;53.204;5.778;2023-04-25T03:55:44;6.70;99.90
53520;DHT22;39397;53.204;5.778;2023-04-25T03:58:10;5.50;99.90
53520;DHT22;39397;53.204;5.778;2023-04-25T04:00:36;5.60;99.90
53520;DHT22;39397;53.204;5.778;2023-04-25T04:03:02;5.70;99.90
53520;DHT22;39397;53.204;5.778;2023-04-25T04:05:27;5.40;99.90
53520;DHT22;39397;53.204;5.778;2023-04-25T04:07:54;6.00;99.90
53520;DHT22;39397;53.204;5.778;2023-04-25T04:10:21;5.50;99.90
53520;DHT22;39397;53.204;5.778;2023-04-25T04:12:46;5.30;99.90
53520;DHT22;39397;53.204;5.778;2023-04-25T04:15:12;5.40;99.90
53520;DHT22;39397;53.204;5.778;2023-04-25T04:17:38;6.20;99.90
53520;DHT22;39397;53.204;5.778;2023-04-25T04:20:06;5.40;99.90
53520;DHT22;39397;53.204;5.778;2023-04-25T04:22:33;5.60;99.90
53520;DHT22;39397;53.204;5.778;2023-04-25T04:24:58;5.60;99.90
53520;DHT22;39397;53.204;5.778;2023-04-25T04:27:24;6.30;99.90
53520;DHT22;39397;53.204;5.778;2023-04-25T04:29:50;6.70;99.90
53520;DHT22;39397;53.204;5.778;2023-04-25T04:32:17;5.80;99.90
53520;DHT22;39397;53.204;5.778;2023-04-25T04:34:43;6.30;99.90
53520;DHT22;39397;53.204;5.778;2023-04-25T04:37:10;5.50;99.90
53520;DHT22;39397;53.204;5.778;2023-04-25T04:39:38;5.70;99.90
53520;DHT22;39397;53.204;5.778;2023-04-25T04:42:04;6.20;99.90
53520;DHT22;39397;53.204;5.778;2023-04-25T04:44:30;5.60;99.90
53520;DHT22;39397;53.204;5.778;2023-04-25T04:47:00;5.60;99.90
53520;DHT22;39397;53.204;5.778;2023-04-25T04:49:25;5.70;99.90
53520;DHT22;39397;53.204;5.778;2023-04-25T04:51:52;5.80;99.90
53520;DHT22;39397;53.204;5.778;2023-04-25T04:54:17;6.80;99.90
53520;DHT22;39397;53.204;5.778;2023-04-25T04:56:43;5.70;99.90
53520;DHT22;39397;53.204;5.778;2023-04-25T04:59:09;7.10;99.90
53520;DHT22;39397;53.204;5.778;2023-04-25T05:01:34;5.60;99.90
53520;DHT22;39397;53.204;5.778;2023-04-25T05:04:01;5.70;99.90
53520;DHT22;39397;53.204;5.778;2023-04-25T05:06:28;5.70;99.90
53520;DHT22;39397;53.204;5.778;2023-04-25T05:08:57;6.60;99.90
53520;DHT22;39397;53.204;5.778;2023-04-25T05:11:24;5.70;99.90
53520;DHT22;39397;53.204;5.778;2023-04-25T05:13:52;6.60;99.90
53520;DHT22;39397;53.204;5.778;2023-04-25T05:16:18;5.60;99.90
53520;DHT22;39397;53.204;5.778;2023-04-25T05:18:45;5.60;99.90
53520;DHT22;39397;53.204;5.778;2023-04-25T05:21:11;6.80;99.90
53520;DHT22;39397;53.204;5.778;2023-04-25T05:23:37;6.20;99.90
53520;DHT22;39397;53.204;5.778;2023-04-25T05:26:02;7.40;99.90
53520;DHT22;39397;53.204;5.778;2023-04-25T05:28:28;7.40;99.90
53520;DHT22;39397;53.204;5.778;2023-04-25T05:30:54;6.70;99.90
53520;DHT22;39397;53.204;5.778;2023-04-25T05:33:20;7.30;99.90
53520;DHT22;39397;53.204;5.778;2023-04-25T05:35:46;7.10;99.90
53520;DHT22;39397;53.204;5.778;2023-04-25T05:38:13;7.10;99.90
53520;DHT22;39397;53.204;5.778;2023-04-25T05:40:38;6.20;99.90
53520;DHT22;39397;53.204;5.778;2023-04-25T05:43:04;6.00;99.90
53520;DHT22;39397;53.204;5.778;2023-04-25T05:45:30;6.30;99.90
53520;DHT22;39397;53.204;5.778;2023-04-25T05:47:56;6.20;99.90
53520;DHT22;39397;53.204;5.778;2023-04-25T05:50:21;7.40;99.90
53520;DHT22;39397;53.204;5.778;2023-04-25T05:52:47;7.40;99.90
53520;DHT22;39397;53.204;5.778;2023-04-25T05:55:13;6.00;99.90
53520;DHT22;39397;53.204;5.778;2023-04-25T05:57:39;5.80;99.90
53520;DHT22;39397;53.204;5.778;2023-04-25T06:00:11;6.00;99.90
53520;DHT22;39397;53.204;5.778;2023-04-25T06:02:37;5.60;99.90
53520;DHT22;39397;53.204;5.778;2023-04-25T06:05:02;7.10;99.90
53520;DHT22;39397;53.204;5.778;2023-04-25T06:07:29;5.50;99.90
53520;DHT22;39397;53.204;5.778;2023-04-25T06:09:56;5.50;99.90
53520;DHT22;39397;53.204;5.778;2023-04-25T06:12:21;6.20;99.90
53520;DHT22;39397;53.204;5.778;2023-04-25T06:14:47;5.60;99.90
53520;DHT22;39397;53.204;5.778;2023-04-25T06:17:13;5.50;99.90
53520;DHT22;39397;53.204;5.778;2023-04-25T06:19:39;5.60;99.90
53520;DHT22;39397;53.204;5.778;2023-04-25T06:22:05;5.70;99.90
53520;DHT22;39397;53.204;5.778;2023-04-25T06:24:32;6.00;99.90
53520;DHT22;39397;53.204;5.778;2023-04-25T06:26:57;7.60;99.90
53520;DHT22;39397;53.204;5.778;2023-04-25T06:29:23;7.10;99.90
53520;DHT22;39397;53.204;5.778;2023-04-25T06:31:50;7.60;99.90
53520;DHT22;39397;53.204;5.778;2023-04-25T06:34:16;6.50;99.90
53520;DHT22;39397;53.204;5.778;2023-04-25T06:36:41;6.90;99.90
53520;DHT22;39397;53.204;5.778;2023-04-25T06:39:07;7.20;99.90
53520;DHT22;39397;53.204;5.778;2023-04-25T06:41:34;7.30;99.90
53520;DHT22;39397;53.204;5.778;2023-04-25T06:44:00;7.60;99.90
53520;DHT22;39397;53.204;5.778;2023-04-25T06:46:26;7.00;99.90
53520;DHT22;39397;53.204;5.778;2023-04-25T06:48:52;6.60;99.90
53520;DHT22;39397;53.204;5.778;2023-04-25T06:51:18;6.30;99.90
53520;DHT22;39397;53.204;5.778;2023-04-25T06:53:43;6.10;99.90
53520;DHT22;39397;53.204;5.778;2023-04-25T06:56:09;6.30;99.90
53520;DHT22;39397;53.204;5.778;2023-04-25T06:58:35;6.80;99.90
53520;DHT22;39397;53.204;5.778;2023-04-25T07:01:01;6.50;99.90
53520;DHT22;39397;53.204;5.778;2023-04-25T07:03:27;6.60;99.90
53520;DHT22;39397;53.204;5.778;2023-04-25T07:05:53;6.80;99.90
53520;DHT22;39397;53.204;5.778;2023-04-25T07:08:21;7.30;99.90
53520;DHT22;39397;53.204;5.778;2023-04-25T07:10:50;7.00;99.90
53520;DHT22;39397;53.204;5.778;2023-04-25T07:13:16;7.00;99.90
53520;DHT22;39397;53.204;5.778;2023-04-25T07:15:45;8.10;99.90
53520;DHT22;39397;53.204;5.778;2023-04-25T07:18:14;6.90;99.90
53520;DHT22;39397;53.204;5.778;2023-04-25T07:20:45;5.90;99.90
53520;DHT22;39397;53.204;5.778;2023-04-25T07:23:12;7.00;99.90
53520;DHT22;39397;53.204;5.778;2023-04-25T07:25:43;6.90;99.90
53520;DHT22;39397;53.204;5.778;2023-04-25T07:28:08;6.90;99.90
53520;DHT22;39397;53.204;5.778;2023-04-25T07:30:37;6.70;99.90
53520;DHT22;39397;53.204;5.778;2023-04-25T07:33:08;7.20;99.90
53520;DHT22;39397;53.204;5.778;2023-04-25T07:35:37;7.60;99.90
53520;DHT22;39397;53.204;5.778;2023-04-25T07:38:08;7.60;99.90
53520;DHT22;39397;53.204;5.778;2023-04-25T07:40:40;7.60;99.90
53520;DHT22;39397;53.204;5.778;2023-04-25T07:43:09;7.70;99.90
53520;DHT22;39397;53.204;5.778;2023-04-25T07:45:40;7.60;99.90
53520;DHT22;39397;53.204;5.778;2023-04-25T07:48:06;7.30;99.90
53520;DHT22;39397;53.204;5.778;2023-04-25T07:50:32;7.90;99.90
53520;DHT22;39397;53.204;5.778;2023-04-25T07:53:03;5.50;99.90
53520;DHT22;39397;53.204;5.778;2023-04-25T07:55:29;8.40;99.90
53520;DHT22;39397;53.204;5.778;2023-04-25T07:58:02;8.30;99.90
53520;DHT22;39397;53.204;5.778;2023-04-25T08:00:28;8.30;99.90
53520;DHT22;39397;53.204;5.778;2023-04-25T08:02:54;8.50;99.90
53520;DHT22;39397;53.204;5.778;2023-04-25T08:05:23;9.60;99.90
53520;DHT22;39397;53.204;5.778;2023-04-25T08:07:51;8.40;99.90
53520;DHT22;39397;53.204;5.778;2023-04-25T08:10:19;8.30;99.90
53520;DHT22;39397;53.204;5.778;2023-04-25T08:12:45;8.30;99.90
53520;DHT22;39397;53.204;5.778;2023-04-25T08:15:11;8.70;99.90
53520;DHT22;39397;53.204;5.778;2023-04-25T08:17:46;8.70;99.90
53520;DHT22;39397;53.204;5.778;2023-04-25T08:20:12;8.70;99.90
53520;DHT22;39397;53.204;5.778;2023-04-25T08:22:46;8.60;99.90
53520;DHT22;39397;53.204;5.778;2023-04-25T08:25:22;8.80;99.90
53520;DHT22;39397;53.204;5.778;2023-04-25T08:27:48;8.90;99.90
53520;DHT22;39397;53.204;5.778;2023-04-25T08:30:22;8.90;99.90
53520;DHT22;39397;53.204;5.778;2023-04-25T08:32:53;9.20;99.90
53520;DHT22;39397;53.204;5.778;2023-04-25T08:35:28;8.90;99.90
53520;DHT22;39397;53.204;5.778;2023-04-25T08:37:54;8.60;99.90
53520;DHT22;39397;53.204;5.778;2023-04-25T08:40:22;8.50;99.90
53520;DHT22;39397;53.204;5.778;2023-04-25T08:42:55;8.50;99.90
53520;DHT22;39397;53.204;5.778;2023-04-25T08:45:21;8.60;99.90
53520;DHT22;39397;53.204;5.778;2023-04-25T08:47:52;8.30;99.90
53520;DHT22;39397;53.204;5.778;2023-04-25T08:50:18;8.30;99.90
53520;DHT22;39397;53.204;5.778;2023-04-25T08:52:52;8.30;99.90
53520;DHT22;39397;53.204;5.778;2023-04-25T08:55:22;8.60;99.90
53520;DHT22;39397;53.204;5.778;2023-04-25T08:57:48;8.40;99.90
53520;DHT22;39397;53.204;5.778;2023-04-25T09:00:18;8.70;99.90
53520;DHT22;39397;53.204;5.778;2023-04-25T09:02:44;8.80;99.90
53520;DHT22;39397;53.204;5.778;2023-04-25T09:05:13;9.20;99.90
53520;DHT22;39397;53.204;5.778;2023-04-25T09:07:38;10.70;99.90
53520;DHT22;39397;53.204;5.778;2023-04-25T09:10:05;9.30;99.90
53520;DHT22;39397;53.204;5.778;2023-04-25T09:12:31;7.70;99.90
53520;DHT22;39397;53.204;5.778;2023-04-25T09:17:29;9.10;99.90
53520;DHT22;39397;53.204;5.778;2023-04-25T09:19:55;8.90;99.90
53520;DHT22;39397;53.204;5.778;2023-04-25T09:22:30;8.90;99.90
53520;DHT22;39397;53.204;5.778;2023-04-25T09:24:56;9.40;99.90
53520;DHT22;39397;53.204;5.778;2023-04-25T09:27:22;9.40;99.90
53520;DHT22;39397;53.204;5.778;2023-04-25T09:29:57;8.90;99.90
53520;DHT22;39397;53.204;5.778;2023-04-25T09:32:27;8.90;99.90
53520;DHT22;39397;53.204;5.778;2023-04-25T09:34:57;8.60;99.90
53520;DHT22;39397;53.204;5.778;2023-04-25T09:37:28;8.60;99.90
53520;DHT22;39397;53.204;5.778;2023-04-25T09:39:59;8.70;99.90
53520;DHT22;39397;53.204;5.778;2023-04-25T09:42:29;8.70;99.90
53520;DHT22;39397;53.204;5.778;2023-04-25T09:44:57;8.80;99.90
53520;DHT22;39397;53.204;5.778;2023-04-25T09:47:24;8.20;99.90
53520;DHT22;39397;53.204;5.778;2023-04-25T09:49:51;8.50;99.90
53520;DHT22;39397;53.204;5.778;2023-04-25T09:52:22;8.20;99.90
53520;DHT22;39397;53.204;5.778;2023-04-25T09:54:49;8.20;99.90
53520;DHT22;39397;53.204;5.778;2023-04-25T09:57:17;8.50;99.90
53520;DHT22;39397;53.204;5.778;2023-04-25T09:59:46;8.50;99.90
53520;DHT22;39397;53.204;5.778;2023-04-25T10:02:23;8.90;99.90
53520;DHT22;39397;53.204;5.778;2023-04-25T10:04:50;8.90;99.90
53520;DHT22;39397;53.204;5.778;2023-04-25T10:07:19;8.80;99.90
53520;DHT22;39397;53.204;5.778;2023-04-25T10:09:48;8.90;99.90
53520;DHT22;39397;53.204;5.778;2023-04-25T10:12:16;8.70;99.90
53520;DHT22;39397;53.204;5.778;2023-04-25T10:14:42;8.70;99.90
53520;DHT22;39397;53.204;5.778;2023-04-25T10:17:10;9.80;99.90
53520;DHT22;39397;53.204;5.778;2023-04-25T10:19:37;8.90;99.90
53520;DHT22;39397;53.204;5.778;2023-04-25T10:24:28;9.20;99.90
53520;DHT22;39397;53.204;5.778;2023-04-25T10:26:55;10.00;99.90
53520;DHT22;39397;53.204;5.778;2023-04-25T10:29:22;9.60;99.90
53520;DHT22;39397;53.204;5.778;2023-04-25T10:31:49;9.80;99.90
53520;DHT22;39397;53.204;5.778;2023-04-25T10:34:16;9.50;99.90
53520;DHT22;39397;53.204;5.778;2023-04-25T10:36:42;9.30;99.90
53520;DHT22;39397;53.204;5.778;2023-04-25T10:39:08;9.00;99.90
53520;DHT22;39397;53.204;5.778;2023-04-25T10:41:48;9.00;99.90
53520;DHT22;39397;53.204;5.778;2023-04-25T10:44:17;8.70;99.90
53520;DHT22;39397;53.204;5.778;2023-04-25T10:46:46;8.50;99.90
53520;DHT22;39397;53.204;5.778;2023-04-25T10:49:35;8.40;99.90
53520;DHT22;39397;53.204;5.778;2023-04-25T10:52:26;8.50;99.90
53520;DHT22;39397;53.204;5.778;2023-04-25T10:54:57;8.70;99.90
53520;DHT22;39397;53.204;5.778;2023-04-25T10:57:43;8.80;99.90
53520;DHT22;39397;53.204;5.778;2023-04-25T11:00:19;8.90;99.90
53520;DHT22;39397;53.204;5.778;2023-04-25T11:02:52;9.00;99.90
53520;DHT22;39397;53.204;5.778;2023-04-25T11:07:54;9.20;99.90
53520;DHT22;39397;53.204;5.778;2023-04-25T11:10:31;9.30;99.90
53520;DHT22;39397;53.204;5.778;2023-04-25T11:12:58;9.30;99.90
53520;DHT22;39397;53.204;5.778;2023-04-25T11:15:24;9.40;99.90
53520;DHT22;39397;53.204;5.778;2023-04-25T11:17:54;9.50;99.90
53520;DHT22;39397;53.204;5.778;2023-04-25T11:20:21;9.70;99.90
53520;DHT22;39397;53.204;5.778;2023-04-25T11:22:47;9.80;99.90
53520;DHT22;39397;53.204;5.778;2023-04-25T11:25:15;9.80;99.90
53520;DHT22;39397;53.204;5.778;2023-04-25T11:27:51;9.80;99.90
53520;DHT22;39397;53.204;5.778;2023-04-25T11:30:18;9.50;99.90
53520;DHT22;39397;53.204;5.778;2023-04-25T11:32:47;9.40;99.90
53520;DHT22;39397;53.204;5.778;2023-04-25T11:35:13;9.70;99.90
53520;DHT22;39397;53.204;5.778;2023-04-25T11:37:40;9.60;99.90
53520;DHT22;39397;53.204;5.778;2023-04-25T11:40:07;9.40;99.90
53520;DHT22;39397;53.204;5.778;2023-04-25T11:42:34;9.20;99.90
53520;DHT22;39397;53.204;5.778;2023-04-25T11:45:03;9.10;99.90
53520;DHT22;39397;53.204;5.778;2023-04-25T11:47:30;9.20;99.90
53520;DHT22;39397;53.204;5.778;2023-04-25T11:49:58;9.30;99.90
53520;DHT22;39397;53.204;5.778;2023-04-25T11:52:35;9.30;99.90
53520;DHT22;39397;53.204;5.778;2023-04-25T11:55:00;9.50;99.90
53520;DHT22;39397;53.204;5.778;2023-04-25T11:57:26;9.80;99.90
53520;DHT22;39397;53.204;5.778;2023-04-25T11:59:52;10.00;99.90
53520;DHT22;39397;53.204;5.778;2023-04-25T12:02:25;9.90;99.90
53520;DHT22;39397;53.204;5.778;2023-04-25T12:04:51;9.80;99.90
53520;DHT22;39397;53.204;5.778;2023-04-25T12:07:16;9.70;99.90
53520;DHT22;39397;53.204;5.778;2023-04-25T12:09:51;9.50;99.90
53520;DHT22;39397;53.204;5.778;2023-04-25T12:12:17;9.40;99.90
53520;DHT22;39397;53.204;5.778;2023-04-25T12:14:47;9.50;99.90
53520;DHT22;39397;53.204;5.778;2023-04-25T12:17:14;9.40;99.70
53520;DHT22;39397;53.204;5.778;2023-04-25T12:19:40;9.40;99.90
53520;DHT22;39397;53.204;5.778;2023-04-25T12:22:19;9.60;99.90
53520;DHT22;39397;53.204;5.778;2023-04-25T12:24:46;9.90;99.90
53520;DHT22;39397;53.204;5.778;2023-04-25T12:27:14;10.10;99.10
53520;DHT22;39397;53.204;5.778;2023-04-25T12:29:54;10.30;98.70
53520;DHT22;39397;53.204;5.778;2023-04-25T12:32:21;11.00;99.60
53520;DHT22;39397;53.204;5.778;2023-04-25T12:34:47;10.40;99.80
53520;DHT22;39397;53.204;5.778;2023-04-25T12:37:12;10.60;99.90
53520;DHT22;39397;53.204;5.778;2023-04-25T12:39:38;10.50;99.90
53520;DHT22;39397;53.204;5.778;2023-04-25T12:42:04;10.60;99.90
53520;DHT22;39397;53.204;5.778;2023-04-25T12:44:30;10.50;99.90
53520;DHT22;39397;53.204;5.778;2023-04-25T12:46:56;10.60;99.90
53520;DHT22;39397;53.204;5.778;2023-04-25T12:49:22;10.30;99.30
53520;DHT22;39397;53.204;5.778;2023-04-25T12:51:47;10.20;99.30
53520;DHT22;39397;53.204;5.778;2023-04-25T12:54:13;10.10;98.50
53520;DHT22;39397;53.204;5.778;2023-04-25T12:56:40;10.20;98.80
53520;DHT22;39397;53.204;5.778;2023-04-25T12:59:06;10.10;98.20
53520;DHT22;39397;53.204;5.778;2023-04-25T13:01:32;10.10;98.50
53520;DHT22;39397;53.204;5.778;2023-04-25T13:03:58;10.00;98.70
53520;DHT22;39397;53.204;5.778;2023-04-25T13:06:23;9.80;99.10
53520;DHT22;39397;53.204;5.778;2023-04-25T13:08:49;9.60;99.10
53520;DHT22;39397;53.204;5.778;2023-04-25T13:11:15;9.50;99.20
53520;DHT22;39397;53.204;5.778;2023-04-25T13:13:41;9.30;99.10
53520;DHT22;39397;53.204;5.778;2023-04-25T13:16:07;9.50;98.70
53520;DHT22;39397;53.204;5.778;2023-04-25T13:18:34;9.70;98.50
53520;DHT22;39397;53.204;5.778;2023-04-25T13:21:00;9.70;98.70
53520;DHT22;39397;53.204;5.778;2023-04-25T13:23:28;10.10;98.50
53520;DHT22;39397;53.204;5.778;2023-04-25T13:25:54;10.20;97.90
53520;DHT22;39397;53.204;5.778;2023-04-25T13:28:20;10.20;97.40
53520;DHT22;39397;53.204;5.778;2023-04-25T13:30:46;10.20;97.50
53520;DHT22;39397;53.204;5.778;2023-04-25T13:33:14;10.00;97.40
53520;DHT22;39397;53.204;5.778;2023-04-25T13:35:40;10.00;97.00
53520;DHT22;39397;53.204;5.778;2023-04-25T13:38:06;10.20;96.80
53520;DHT22;39397;53.204;5.778;2023-04-25T13:40:32;10.40;96.50
53520;DHT22;39397;53.204;5.778;2023-04-25T13:42:58;10.50;96.70
53520;DHT22;39397;53.204;5.778;2023-04-25T13:45:24;10.60;96.40
53520;DHT22;39397;53.204;5.778;2023-04-25T13:47:50;10.70;97.50
53520;DHT22;39397;53.204;5.778;2023-04-25T13:50:16;10.60;98.40
53520;DHT22;39397;53.204;5.778;2023-04-25T13:52:42;10.40;98.80
53520;DHT22;39397;53.204;5.778;2023-04-25T13:55:09;10.00;99.00
53520;DHT22;39397;53.204;5.778;2023-04-25T13:57:35;9.70;99.10
53520;DHT22;39397;53.204;5.778;2023-04-25T14:00:03;9.40;99.70
53520;DHT22;39397;53.204;5.778;2023-04-25T14:02:34;9.20;99.90
53520;DHT22;39397;53.204;5.778;2023-04-25T14:05:01;8.90;99.90
53520;DHT22;39397;53.204;5.778;2023-04-25T14:07:27;8.80;99.90
53520;DHT22;39397;53.204;5.778;2023-04-25T14:09:52;8.90;99.90
53520;DHT22;39397;53.204;5.778;2023-04-25T14:12:18;9.60;99.90
53520;DHT22;39397;53.204;5.778;2023-04-25T14:14:44;9.20;99.90
53520;DHT22;39397;53.204;5.778;2023-04-25T14:17:09;9.40;99.90
53520;DHT22;39397;53.204;5.778;2023-04-25T14:19:36;9.60;99.90
53520;DHT22;39397;53.204;5.778;2023-04-25T14:22:04;9.90;99.90
53520;DHT22;39397;53.204;5.778;2023-04-25T14:24:29;9.80;99.90
53520;DHT22;39397;53.204;5.778;2023-04-25T14:26:55;9.60;99.90
53520;DHT22;39397;53.204;5.778;2023-04-25T14:29:21;10.60;99.90
53520;DHT22;39397;53.204;5.778;2023-04-25T14:31:47;9.30;99.90
53520;DHT22;39397;53.204;5.778;2023-04-25T14:34:13;9.10;99.90
53520;DHT22;39397;53.204;5.778;2023-04-25T14:36:39;9.10;99.90
53520;DHT22;39397;53.204;5.778;2023-04-25T14:39:04;9.00;99.90
53520;DHT22;39397;53.204;5.778;2023-04-25T14:41:30;9.50;99.90
53520;DHT22;39397;53.204;5.778;2023-04-25T14:43:56;8.90;99.90
53520;DHT22;39397;53.204;5.778;2023-04-25T14:46:22;9.20;99.90
53520;DHT22;39397;53.204;5.778;2023-04-25T14:48:48;9.50;99.90
53520;DHT22;39397;53.204;5.778;2023-04-25T14:51:14;9.50;99.90
53520;DHT22;39397;53.204;5.778;2023-04-25T14:53:40;9.70;99.90
53520;DHT22;39397;53.204;5.778;2023-04-25T14:56:06;9.70;99.90
53520;DHT22;39397;53.204;5.778;2023-04-25T14:58:33;9.60;99.90
53520;DHT22;39397;53.204;5.778;2023-04-25T15:00:59;9.30;99.90
53520;DHT22;39397;53.204;5.778;2023-04-25T15:03:25;9.50;99.90
53520;DHT22;39397;53.204;5.778;2023-04-25T15:05:51;9.50;99.90
53520;DHT22;39397;53.204;5.778;2023-04-25T15:08:17;9.70;99.90
53520;DHT22;39397;53.204;5.778;2023-04-25T15:10:43;9.90;99.90
53520;DHT22;39397;53.204;5.778;2023-04-25T15:13:10;9.90;99.90
53520;DHT22;39397;53.204;5.778;2023-04-25T15:15:36;9.70;99.80
53520;DHT22;39397;53.204;5.778;2023-04-25T15:18:02;9.40;99.90
53520;DHT22;39397;53.204;5.778;2023-04-25T15:20:28;9.30;99.90
53520;DHT22;39397;53.204;5.778;2023-04-25T15:22:53;9.20;99.90
53520;DHT22;39397;53.204;5.778;2023-04-25T15:25:20;8.90;99.90
53520;DHT22;39397;53.204;5.778;2023-04-25T15:27:46;8.70;99.90
53520;DHT22;39397;53.204;5.778;2023-04-25T15:30:17;8.60;99.90
53520;DHT22;39397;53.204;5.778;2023-04-25T15:32:44;9.20;99.90
53520;DHT22;39397;53.204;5.778;2023-04-25T15:35:10;8.20;99.90
53520;DHT22;39397;53.204;5.778;2023-04-25T15:37:37;9.20;99.90
53520;DHT22;39397;53.204;5.778;2023-04-25T15:40:03;8.20;99.90
53520;DHT22;39397;53.204;5.778;2023-04-25T15:42:40;8.70;99.90
53520;DHT22;39397;53.204;5.778;2023-04-25T15:45:08;9.20;99.90
53520;DHT22;39397;53.204;5.778;2023-04-25T15:47:34;9.40;99.90
53520;DHT22;39397;53.204;5.778;2023-04-25T15:50:05;9.40;99.90
53520;DHT22;39397;53.204;5.778;2023-04-25T15:52:32;9.60;99.90